Time;durP1;ratioP1;P1;durP2;ratioP2;P2;SDS_P1;SDS_P2;PMS_P1;PMS_P2;Temp;Humidity;BMP_temperature;BMP_pressure;BME280_temperature;BME280_humidity;BME280_pressure;Samples;Min_cycle;Max_cycle;Signal;HPM_P1;HPM_P2
2021/06/20 00:00:27;;;;;;;21.33;13.13;;;;;;;;;;4351763;28;10000708;-62
2021/06/20 00:02:54;;;;;;;24.70;13.50;;;;;;;;;;5050366;28;20496;-63
2021/06/20 00:05:23;;;;;;;24.77;15.85;;;;;;;;;;5050166;28;20090;-65
2021/06/20 00:07:50;;;;;;;20.60;14.52;;;;;;;;;;5051300;28;20025;-60
2021/06/20 00:10:18;;;;;;;20.88;14.70;;;;;;;;;;5049928;28;20489;-62
2021/06/20 00:12:45;;;;;;;23.98;15.32;;;;;;;;;;5049509;28;20044;-61
2021/06/20 00:15:12;;;;;;;26.88;18.92;;;;;;;;;;5050151;28;20166;-62
2021/06/20 00:17:38;;;;;;;25.08;17.48;;;;;;;;;;5053389;28;20395;-63
2021/06/20 00:20:06;;;;;;;25.13;18.98;;;;;;;;;;5053568;28;20036;-63
2021/06/20 00:22:32;;;;;;;25.58;21.95;;;;;;;;;;5054627;28;20029;-61
2021/06/20 00:24:58;;;;;;;27.90;24.92;;;;;;;;;;5053216;28;20028;-62
2021/06/20 00:27:26;;;;;;;32.03;28.58;;;;;;;;;;5053327;28;20126;-61
2021/06/20 00:29:52;;;;;;;31.83;28.33;;;;;;;;;;5055131;28;20060;-59
2021/06/20 00:32:18;;;;;;;30.55;26.65;;;;;;;;;;5053522;28;20110;-59
2021/06/20 00:34:44;;;;;;;32.08;28.67;;;;;;;;;;5053430;28;20559;-60
2021/06/20 00:37:10;;;;;;;30.77;27.45;;;;;;;;;;5054809;28;20100;-63
2021/06/20 00:39:36;;;;;;;30.77;27.48;;;;;;;;;;5054665;28;20061;-60
2021/06/20 00:42:02;;;;;;;31.63;28.23;;;;;;;;;;5054488;28;20032;-60
2021/06/20 00:44:28;;;;;;;28.58;25.00;;;;;;;;;;5054394;28;20036;-61
2021/06/20 00:46:54;;;;;;;27.58;23.13;;;;;;;;;;5054514;28;20392;-62
2021/06/20 00:49:20;;;;;;;31.30;25.45;;;;;;;;;;5054549;28;20070;-61
2021/06/20 00:51:46;;;;;;;29.38;26.20;;;;;;;;;;5054520;28;20037;-61
2021/06/20 00:54:12;;;;;;;31.70;28.23;;;;;;;;;;5054283;28;20029;-60
2021/06/20 00:56:38;;;;;;;38.72;34.47;;;;;;;;;;5054298;28;20393;-60
2021/06/20 00:59:04;;;;;;;48.70;39.55;;;;;;;;;;5054332;28;20090;-60
2021/06/20 01:01:31;;;;;;;49.10;43.95;;;;;;;;;;5054155;28;20101;-61
2021/06/20 01:03:58;;;;;;;42.58;36.17;;;;;;;;;;5052944;28;20037;-60
2021/06/20 01:06:24;;;;;;;48.92;39.05;;;;;;;;;;5053165;28;20032;-61
2021/06/20 01:08:51;;;;;;;39.42;35.17;;;;;;;;;;5054190;28;20036;-61
2021/06/20 01:11:17;;;;;;;43.88;39.03;;;;;;;;;;5054077;28;20021;-60
2021/06/20 01:13:44;;;;;;;37.65;33.70;;;;;;;;;;5054146;28;20032;-58
2021/06/20 01:16:10;;;;;;;39.97;33.95;;;;;;;;;;5052518;28;20373;-61
2021/06/20 01:18:36;;;;;;;40.45;36.20;;;;;;;;;;5053836;28;20025;-60
2021/06/20 01:21:02;;;;;;;38.25;34.15;;;;;;;;;;5052645;28;20029;-61
2021/06/20 01:23:28;;;;;;;37.35;32.75;;;;;;;;;;5053823;28;20111;-61
2021/06/20 01:25:55;;;;;;;33.95;30.23;;;;;;;;;;5053484;28;20025;-60
2021/06/20 01:28:27;;;;;;;32.95;29.48;;;;;;;;;;5052694;28;20503;-59
2021/06/20 01:30:58;;;;;;;33.15;29.55;;;;;;;;;;5054011;28;20029;-60
2021/06/20 01:33:24;;;;;;;33.03;28.88;;;;;;;;;;5053786;28;20099;-62
2021/06/20 01:35:52;;;;;;;33.40;29.80;;;;;;;;;;5053419;28;20025;-62
2021/06/20 01:38:18;;;;;;;32.28;28.80;;;;;;;;;;5053681;28;20104;-62
2021/06/20 01:40:44;;;;;;;36.78;31.75;;;;;;;;;;5052112;28;20036;-62
2021/06/20 01:43:10;;;;;;;35.47;30.65;;;;;;;;;;5053583;28;20033;-58
2021/06/20 01:45:38;;;;;;;32.88;29.02;;;;;;;;;;5053333;28;20025;-62
2021/06/20 01:48:05;;;;;;;30.33;26.95;;;;;;;;;;5053540;28;20060;-60
2021/06/20 01:50:31;;;;;;;29.40;26.20;;;;;;;;;;5053389;28;20104;-62
2021/06/20 01:53:15;;;;;;;29.42;25.40;;;;;;;;;;5053455;28;20032;-62
2021/06/20 01:55:42;;;;;;;28.15;25.10;;;;;;;;;;5052963;28;20032;-61
2021/06/20 01:58:12;;;;;;;31.73;26.83;;;;;;;;;;5053416;28;20036;-61
2021/06/20 02:00:38;;;;;;;31.17;26.75;;;;;;;;;;5053052;28;20472;-61
2021/06/20 02:03:05;;;;;;;27.80;24.83;;;;;;;;;;5051847;28;20028;-63
2021/06/20 02:05:31;;;;;;;29.05;25.33;;;;;;;;;;5051982;28;20020;-62
2021/06/20 02:07:57;;;;;;;34.75;25.80;;;;;;;;;;5053034;28;20473;-61
2021/06/20 02:10:23;;;;;;;26.60;23.38;;;;;;;;;;5052913;28;20033;-61
2021/06/20 02:12:51;;;;;;;37.10;24.75;;;;;;;;;;5052991;28;20021;-61
2021/06/20 02:15:17;;;;;;;28.17;25.15;;;;;;;;;;5052841;28;20079;-62
2021/06/20 02:17:44;;;;;;;27.20;23.17;;;;;;;;;;5052861;28;20025;-62
2021/06/20 02:20:11;;;;;;;29.90;24.60;;;;;;;;;;5052789;28;20025;-61
2021/06/20 02:22:41;;;;;;;27.48;24.00;;;;;;;;;;5052709;28;20040;-63
2021/06/20 02:25:08;;;;;;;25.88;23.17;;;;;;;;;;5051234;28;20393;-59
2021/06/20 02:27:34;;;;;;;27.50;24.45;;;;;;;;;;5052636;28;20021;-61
2021/06/20 02:30:00;;;;;;;26.17;23.10;;;;;;;;;;5052706;28;20059;-61
2021/06/20 02:32:26;;;;;;;26.38;23.58;;;;;;;;;;5051728;28;20059;-63
2021/06/20 02:34:52;;;;;;;30.45;26.00;;;;;;;;;;5052386;28;20032;-62
2021/06/20 02:37:19;;;;;;;30.73;27.52;;;;;;;;;;5052397;28;20029;-63
2021/06/20 02:39:45;;;;;;;29.33;25.83;;;;;;;;;;5050746;28;20393;-62
2021/06/20 02:42:11;;;;;;;28.98;25.88;;;;;;;;;;5052524;28;20025;-57
2021/06/20 02:44:38;;;;;;;30.00;24.30;;;;;;;;;;5051317;28;20025;-62
2021/06/20 02:47:05;;;;;;;30.65;25.35;;;;;;;;;;5052636;28;20036;-63
2021/06/20 02:49:32;;;;;;;28.13;25.13;;;;;;;;;;5052706;28;20126;-62
2021/06/20 02:51:58;;;;;;;34.40;30.85;;;;;;;;;;5051024;28;20024;-63
2021/06/20 02:54:25;;;;;;;36.55;33.08;;;;;;;;;;5052032;28;20492;-63
2021/06/20 02:56:51;;;;;;;38.60;34.90;;;;;;;;;;5052185;28;20132;-63
2021/06/20 02:59:17;;;;;;;30.02;24.60;;;;;;;;;;5052202;28;20100;-63
2021/06/20 03:01:43;;;;;;;25.55;22.05;;;;;;;;;;5052132;28;20075;-63
2021/06/20 03:04:10;;;;;;;24.10;19.63;;;;;;;;;;5051996;28;20362;-63
2021/06/20 03:06:36;;;;;;;25.65;20.90;;;;;;;;;;5051043;28;20453;-63
2021/06/20 03:09:03;;;;;;;22.05;19.40;;;;;;;;;;5051985;28;20500;-63
2021/06/20 03:11:29;;;;;;;22.95;19.13;;;;;;;;;;5051936;28;20066;-62
2021/06/20 03:13:55;;;;;;;23.55;18.88;;;;;;;;;;5051924;28;20033;-64
2021/06/20 03:16:21;;;;;;;21.40;16.27;;;;;;;;;;5051610;28;20029;-63
2021/06/20 03:18:50;;;;;;;19.90;15.88;;;;;;;;;;5051760;28;20056;-61
2021/06/20 03:21:17;;;;;;;21.55;15.25;;;;;;;;;;5050079;28;20447;-62
2021/06/20 03:23:43;;;;;;;25.58;14.77;;;;;;;;;;5051964;28;20025;-62
2021/06/20 03:26:09;;;;;;;20.40;14.43;;;;;;;;;;5051616;28;20032;-62
2021/06/20 03:28:36;;;;;;;22.52;15.82;;;;;;;;;;5051846;28;20021;-63
2021/06/20 03:31:02;;;;;;;19.38;14.15;;;;;;;;;;5051678;28;20017;-63
2021/06/20 03:33:30;;;;;;;19.02;14.10;;;;;;;;;;5050365;28;20025;-62
2021/06/20 03:35:56;;;;;;;18.17;13.45;;;;;;;;;;5051699;28;20025;-64
2021/06/20 03:38:22;;;;;;;17.40;12.55;;;;;;;;;;5050171;28;20031;-63
2021/06/20 03:40:48;;;;;;;18.45;12.80;;;;;;;;;;5051704;28;20034;-63
2021/06/20 03:43:14;;;;;;;18.30;12.15;;;;;;;;;;5051643;28;20025;-62
2021/06/20 03:45:40;;;;;;;18.08;12.50;;;;;;;;;;5050110;28;20504;-63
2021/06/20 03:48:06;;;;;;;17.92;12.15;;;;;;;;;;5051658;28;20029;-61
2021/06/20 03:50:32;;;;;;;25.95;13.10;;;;;;;;;;5052844;28;20417;-62
2021/06/20 03:52:58;;;;;;;17.92;11.98;;;;;;;;;;5055525;28;20025;-62
2021/06/20 03:55:24;;;;;;;18.48;12.25;;;;;;;;;;5055793;28;20028;-64
2021/06/20 03:57:51;;;;;;;18.13;12.52;;;;;;;;;;5055377;28;20071;-62
2021/06/20 04:00:17;;;;;;;17.15;11.55;;;;;;;;;;5054124;28;20035;-64
2021/06/20 04:02:43;;;;;;;20.95;11.75;;;;;;;;;;5054165;28;20036;-63
2021/06/20 04:05:10;;;;;;;18.67;11.50;;;;;;;;;;5055191;28;20029;-63
2021/06/20 04:07:36;;;;;;;20.88;11.68;;;;;;;;;;5055541;28;20053;-64
2021/06/20 04:10:03;;;;;;;18.27;11.70;;;;;;;;;;5054065;28;20393;-64
2021/06/20 04:12:30;;;;;;;19.30;11.30;;;;;;;;;;5055229;28;20029;-63
2021/06/20 04:14:56;;;;;;;18.55;11.07;;;;;;;;;;5054931;28;20032;-62
2021/06/20 04:17:22;;;;;;;19.15;11.45;;;;;;;;;;5055083;28;20552;-63
2021/06/20 04:19:48;;;;;;;17.35;10.40;;;;;;;;;;5055047;28;20029;-63
2021/06/20 04:22:14;;;;;;;23.83;11.27;;;;;;;;;;5053504;28;20503;-63
2021/06/20 04:24:40;;;;;;;17.48;10.48;;;;;;;;;;5054858;28;20362;-63
2021/06/20 04:27:08;;;;;;;18.02;10.27;;;;;;;;;;5055004;28;20024;-63
2021/06/20 04:29:34;;;;;;;19.02;10.35;;;;;;;;;;5054983;28;20052;-62
2021/06/20 04:32:00;;;;;;;22.00;10.30;;;;;;;;;;5055107;28;20076;-63
2021/06/20 04:34:26;;;;;;;18.77;10.27;;;;;;;;;;5053368;28;20450;-63
2021/06/20 04:36:52;;;;;;;20.13;10.30;;;;;;;;;;5053422;28;20028;-62
2021/06/20 04:39:18;;;;;;;20.63;10.05;;;;;;;;;;5053503;28;20025;-62
2021/06/20 04:41:45;;;;;;;18.80;9.98;;;;;;;;;;5054495;28;20021;-62
2021/06/20 04:47:06;;;;;;;21.73;10.63;;;;;;;;;;5044672;28;20021;-63
2021/06/20 04:49:32;;;;;;;20.75;11.60;;;;;;;;;;5053255;28;20055;-63
2021/06/20 04:51:58;;;;;;;22.65;11.27;;;;;;;;;;5053158;28;20504;-62
2021/06/20 04:54:24;;;;;;;22.02;11.15;;;;;;;;;;5054283;28;20029;-63
2021/06/20 04:56:50;;;;;;;21.75;11.48;;;;;;;;;;5054526;28;20396;-62
2021/06/20 04:59:16;;;;;;;23.33;11.88;;;;;;;;;;5053196;28;20021;-63
2021/06/20 05:01:42;;;;;;;26.13;12.07;;;;;;;;;;5053849;28;20021;-62
2021/06/20 05:04:09;;;;;;;24.63;13.13;;;;;;;;;;5054388;28;20040;-62
2021/06/20 05:06:35;;;;;;;19.85;11.20;;;;;;;;;;5052987;28;20021;-63
2021/06/20 05:09:01;;;;;;;23.15;11.80;;;;;;;;;;5054304;28;20021;-62
2021/06/20 05:11:27;;;;;;;21.40;11.65;;;;;;;;;;5054251;28;20096;-62
2021/06/20 05:13:53;;;;;;;18.45;10.93;;;;;;;;;;5054032;28;20477;-62
2021/06/20 05:16:19;;;;;;;23.80;11.95;;;;;;;;;;5053735;28;20104;-62
2021/06/20 05:18:45;;;;;;;19.63;11.20;;;;;;;;;;5053925;28;20384;-62
2021/06/20 05:21:11;;;;;;;25.25;12.35;;;;;;;;;;5053820;28;20104;-62
2021/06/20 05:23:37;;;;;;;20.25;11.15;;;;;;;;;;5053956;28;20021;-62
2021/06/20 05:26:03;;;;;;;22.23;12.02;;;;;;;;;;5053628;28;20029;-62
2021/06/20 05:28:29;;;;;;;23.98;12.15;;;;;;;;;;5053719;28;20104;-62
2021/06/20 05:30:55;;;;;;;21.63;12.00;;;;;;;;;;5053614;28;20112;-62
2021/06/20 05:33:21;;;;;;;24.90;12.25;;;;;;;;;;5052799;28;20032;-63
2021/06/20 05:35:47;;;;;;;22.85;13.02;;;;;;;;;;5053563;28;20025;-63
2021/06/20 05:38:13;;;;;;;20.83;11.10;;;;;;;;;;5053566;28;20032;-61
2021/06/20 05:40:40;;;;;;;21.77;12.80;;;;;;;;;;5053682;28;20025;-63
2021/06/20 05:43:06;;;;;;;21.92;11.52;;;;;;;;;;5053655;28;20489;-63
2021/06/20 05:45:33;;;;;;;24.15;12.27;;;;;;;;;;5053245;28;20021;-62
2021/06/20 05:47:59;;;;;;;22.63;13.45;;;;;;;;;;5053588;28;20025;-61
2021/06/20 05:50:25;;;;;;;23.95;12.13;;;;;;;;;;5052016;28;20072;-62
2021/06/20 05:52:51;;;;;;;20.70;12.65;;;;;;;;;;5052209;28;20031;-62
2021/06/20 05:55:17;;;;;;;20.75;12.50;;;;;;;;;;5053210;28;20029;-60
2021/06/20 05:57:43;;;;;;;19.77;11.10;;;;;;;;;;5053363;28;20032;-60
2021/06/20 06:00:10;;;;;;;22.05;11.50;;;;;;;;;;5053188;28;20067;-61
2021/06/20 06:02:36;;;;;;;23.95;11.98;;;;;;;;;;5053100;28;20021;-62
2021/06/20 06:05:02;;;;;;;19.33;11.77;;;;;;;;;;5052644;28;20071;-62
2021/06/20 06:07:28;;;;;;;21.27;11.75;;;;;;;;;;5052893;28;20381;-59
2021/06/20 06:09:54;;;;;;;22.25;12.95;;;;;;;;;;5052970;28;20045;-61
2021/06/20 06:12:23;;;;;;;20.10;11.10;;;;;;;;;;5051401;28;20016;-62
2021/06/20 06:14:51;;;;;;;20.20;11.68;;;;;;;;;;5052277;28;20471;-61
2021/06/20 06:17:17;;;;;;;20.33;11.65;;;;;;;;;;5053031;28;20024;-61
2021/06/20 06:19:43;;;;;;;19.83;10.45;;;;;;;;;;5052903;28;20036;-61
2021/06/20 06:22:09;;;;;;;20.38;11.05;;;;;;;;;;5053836;28;20087;-61
2021/06/20 06:24:35;;;;;;;20.67;11.27;;;;;;;;;;5052589;28;20021;-62
2021/06/20 06:27:01;;;;;;;18.98;10.52;;;;;;;;;;5052752;28;20568;-63
2021/06/20 06:29:27;;;;;;;22.15;10.82;;;;;;;;;;5052623;28;20116;-62
2021/06/20 06:31:53;;;;;;;18.02;10.20;;;;;;;;;;5052590;28;20028;-60
2021/06/20 06:34:20;;;;;;;20.45;10.57;;;;;;;;;;5052594;28;20029;-63
2021/06/20 06:36:46;;;;;;;15.98;9.07;;;;;;;;;;5051231;28;20067;-62
2021/06/20 06:39:12;;;;;;;19.38;9.25;;;;;;;;;;5052449;28;20366;-62
2021/06/20 06:41:38;;;;;;;17.80;9.45;;;;;;;;;;5067880;28;20021;-62
2021/06/20 06:44:04;;;;;;;20.42;9.38;;;;;;;;;;5052291;28;20057;-62
2021/06/20 06:46:30;;;;;;;16.73;8.48;;;;;;;;;;5067706;28;20020;-62
2021/06/20 06:48:56;;;;;;;18.38;8.75;;;;;;;;;;5052121;28;20025;-63
2021/06/20 06:51:22;;;;;;;18.70;8.90;;;;;;;;;;5052335;28;20472;-62
2021/06/20 06:53:48;;;;;;;19.90;9.60;;;;;;;;;;5067539;28;20029;-62
2021/06/20 06:56:14;;;;;;;16.73;8.45;;;;;;;;;;5051906;28;20036;-62
2021/06/20 06:58:40;;;;;;;18.92;8.80;;;;;;;;;;5052057;28;20104;-60
2021/06/20 07:01:06;;;;;;;19.15;8.45;;;;;;;;;;5052041;28;20111;-63
2021/06/20 07:03:32;;;;;;;17.90;8.63;;;;;;;;;;5052092;28;20388;-62
2021/06/20 07:05:58;;;;;;;18.05;8.65;;;;;;;;;;5052123;28;20104;-62
2021/06/20 07:08:24;;;;;;;17.27;7.82;;;;;;;;;;5051984;28;20033;-61
2021/06/20 07:10:50;;;;;;;16.77;7.75;;;;;;;;;;5052061;28;20059;-61
2021/06/20 07:13:16;;;;;;;19.75;7.93;;;;;;;;;;5051855;28;20556;-57
2021/06/20 07:15:42;;;;;;;18.55;7.65;;;;;;;;;;5051625;28;20028;-57
2021/06/20 07:18:08;;;;;;;17.95;8.15;;;;;;;;;;5051761;28;20060;-63
2021/06/20 07:20:34;;;;;;;16.15;7.28;;;;;;;;;;5067075;28;20037;-66
2021/06/20 07:23:00;;;;;;;17.65;7.72;;;;;;;;;;5067181;28;20071;-65
2021/06/20 07:25:26;;;;;;;18.98;7.88;;;;;;;;;;5067121;28;20017;-65
2021/06/20 07:27:52;;;;;;;15.65;7.30;;;;;;;;;;5062721;28;20432;-65
2021/06/20 07:30:20;;;;;;;18.35;7.82;;;;;;;;;;5059370;28;20104;-65
2021/06/20 07:32:46;;;;;;;17.10;8.05;;;;;;;;;;5051770;28;20688;-65
2021/06/20 07:35:13;;;;;;;17.95;7.90;;;;;;;;;;5066562;28;20048;-65
2021/06/20 07:37:39;;;;;;;17.38;8.20;;;;;;;;;;5071954;28;20021;-65
2021/06/20 07:40:07;;;;;;;18.02;8.07;;;;;;;;;;5070146;28;20025;-66
2021/06/20 07:42:33;;;;;;;18.75;9.02;;;;;;;;;;5065088;28;20469;-64
2021/06/20 07:44:59;;;;;;;21.30;9.27;;;;;;;;;;5051105;28;20029;-66
2021/06/20 07:47:25;;;;;;;17.55;8.40;;;;;;;;;;5050253;28;20071;-66
2021/06/20 07:49:51;;;;;;;17.13;8.90;;;;;;;;;;5051408;28;20033;-65
2021/06/20 07:52:17;;;;;;;16.35;8.57;;;;;;;;;;5051157;28;20021;-66
2021/06/20 07:54:49;;;;;;;17.38;9.23;;;;;;;;;;5051156;28;20104;-65
2021/06/20 07:57:19;;;;;;;17.80;9.98;;;;;;;;;;5051444;28;20103;-65
2021/06/20 07:59:46;;;;;;;17.13;8.63;;;;;;;;;;5058593;28;20025;-64
2021/06/20 08:02:12;;;;;;;17.77;9.15;;;;;;;;;;5070082;28;20069;-65
2021/06/20 08:04:39;;;;;;;17.25;9.13;;;;;;;;;;5070006;28;20027;-66
2021/06/20 08:07:05;;;;;;;19.67;9.50;;;;;;;;;;5071166;28;20484;-64
2021/06/20 08:09:31;;;;;;;16.38;8.93;;;;;;;;;;5071322;28;20029;-66
2021/06/20 08:11:57;;;;;;;16.92;8.90;;;;;;;;;;5070484;28;20081;-65
2021/06/20 08:14:23;;;;;;;17.08;9.27;;;;;;;;;;5071091;28;20025;-67
2021/06/20 08:16:49;;;;;;;16.33;9.02;;;;;;;;;;5070959;28;20021;-64
2021/06/20 08:19:15;;;;;;;18.23;9.30;;;;;;;;;;5071157;28;20028;-64
2021/06/20 08:21:43;;;;;;;17.13;9.23;;;;;;;;;;5069732;28;20456;-64
2021/06/20 08:24:09;;;;;;;19.38;9.73;;;;;;;;;;5071300;28;20025;-61
2021/06/20 08:26:35;;;;;;;15.65;8.70;;;;;;;;;;5066749;28;20018;-65
2021/06/20 08:29:01;;;;;;;19.27;9.43;;;;;;;;;;5051068;28;20032;-65
2021/06/20 08:31:27;;;;;;;16.60;8.50;;;;;;;;;;5049816;28;20112;-64
2021/06/20 08:33:53;;;;;;;16.58;9.20;;;;;;;;;;5049928;28;20033;-65
2021/06/20 08:36:19;;;;;;;17.17;8.48;;;;;;;;;;5051718;28;20111;-64
2021/06/20 08:38:46;;;;;;;18.80;8.82;;;;;;;;;;5054531;28;20100;-64
2021/06/20 08:41:15;;;;;;;15.85;8.73;;;;;;;;;;5053294;28;20018;-65
2021/06/20 08:43:42;;;;;;;19.30;9.20;;;;;;;;;;5053602;28;20078;-65
2021/06/20 08:46:09;;;;;;;16.58;7.63;;;;;;;;;;5054579;28;20398;-63
2021/06/20 08:48:36;;;;;;;16.38;7.63;;;;;;;;;;5054436;28;20082;-65
2021/06/20 08:51:02;;;;;;;14.35;6.95;;;;;;;;;;5054143;28;20028;-64
2021/06/20 08:53:28;;;;;;;15.02;7.20;;;;;;;;;;5053144;28;20025;-62
2021/06/20 08:55:54;;;;;;;16.13;7.20;;;;;;;;;;5054096;28;20035;-52
2021/06/20 08:58:26;;;;;;;17.83;8.20;;;;;;;;;;5054209;28;20385;-62
2021/06/20 09:00:53;;;;;;;15.38;7.07;;;;;;;;;;5060095;28;20012;-58
2021/06/20 09:03:19;;;;;;;17.17;7.53;;;;;;;;;;5060398;28;20045;-60
2021/06/20 09:06:01;;;;;;;17.17;8.00;;;;;;;;;;5053993;28;20025;-57
2021/06/20 09:08:28;;;;;;;16.20;7.80;;;;;;;;;;5053544;28;20029;-51
2021/06/20 09:10:55;;;;;;;16.25;7.70;;;;;;;;;;5052949;28;20082;-55
2021/06/20 09:13:21;;;;;;;17.77;7.13;;;;;;;;;;5052442;28;20036;-56
2021/06/20 09:15:57;;;;;;;15.30;7.80;;;;;;;;;;5050650;28;20397;-64
2021/06/20 09:18:23;;;;;;;16.15;7.50;;;;;;;;;;5052357;28;20040;-64
2021/06/20 09:20:51;;;;;;;13.90;7.13;;;;;;;;;;5052220;28;20037;-64
2021/06/20 09:23:18;;;;;;;15.55;7.47;;;;;;;;;;5051684;28;20392;-63
2021/06/20 09:25:45;;;;;;;14.95;7.38;;;;;;;;;;5053685;28;20025;-64
2021/06/20 09:28:12;;;;;;;17.00;7.68;;;;;;;;;;5053578;28;20035;-61
2021/06/20 09:30:49;;;;;;;15.68;7.75;;;;;;;;;;5052142;28;20025;-63
2021/06/20 09:33:15;;;;;;;19.48;7.72;;;;;;;;;;5053860;28;20078;-64
2021/06/20 09:35:46;;;;;;;14.60;7.53;;;;;;;;;;5051952;28;20017;-60
2021/06/20 09:38:22;;;;;;;14.70;8.05;;;;;;;;;;5051927;28;20025;-63
2021/06/20 09:40:51;;;;;;;14.80;7.68;;;;;;;;;;5053245;28;20493;-59
2021/06/20 09:43:19;;;;;;;15.10;7.65;;;;;;;;;;5052019;28;20025;-67
2021/06/20 09:45:49;;;;;;;15.40;7.82;;;;;;;;;;5051890;28;20025;-61
2021/06/20 09:48:24;;;;;;;16.33;7.90;;;;;;;;;;5052307;28;20542;-61
2021/06/20 09:50:50;;;;;;;13.57;7.32;;;;;;;;;;5053401;28;20433;-62
2021/06/20 09:53:19;;;;;;;15.07;7.70;;;;;;;;;;5053145;28;20021;-62
2021/06/20 09:55:45;;;;;;;13.63;7.40;;;;;;;;;;5052810;28;20496;-62
2021/06/20 09:58:11;;;;;;;15.95;7.90;;;;;;;;;;5053075;28;20033;-62
2021/06/20 10:00:41;;;;;;;15.48;8.07;;;;;;;;;;5052995;28;20017;-60
2021/06/20 10:03:08;;;;;;;15.45;8.05;;;;;;;;;;5052826;28;20028;-63
2021/06/20 10:05:34;;;;;;;17.13;8.57;;;;;;;;;;5052648;28;20032;-59
2021/06/20 10:08:01;;;;;;;14.65;8.32;;;;;;;;;;4703887;28;10000050;-61
2021/06/20 10:10:28;;;;;;;15.52;8.15;;;;;;;;;;5056286;28;20504;-62
2021/06/20 10:12:54;;;;;;;15.07;7.82;;;;;;;;;;5059381;28;20543;-62
2021/06/20 10:15:21;;;;;;;14.25;7.78;;;;;;;;;;5067314;28;20024;-61
2021/06/20 10:17:51;;;;;;;14.68;7.63;;;;;;;;;;5068677;28;20383;-61
2021/06/20 10:20:18;;;;;;;14.30;7.50;;;;;;;;;;5059642;28;20559;-62
2021/06/20 10:22:46;;;;;;;16.63;7.68;;;;;;;;;;5058469;28;20025;-61
2021/06/20 10:25:34;;;;;;;15.52;8.07;;;;;;;;;;5061941;28;20644;-62
2021/06/20 10:28:03;;;;;;;14.68;8.10;;;;;;;;;;5061286;28;20025;-61
2021/06/20 10:30:34;;;;;;;16.65;8.60;;;;;;;;;;5060555;28;20018;-61
2021/06/20 10:33:23;;;;;;;15.23;8.55;;;;;;;;;;5061023;28;20083;-61
2021/06/20 10:35:59;;;;;;;14.60;8.13;;;;;;;;;;5053658;28;20107;-59
2021/06/20 10:38:42;;;;;;;14.23;7.70;;;;;;;;;;5063797;28;20052;-62
2021/06/20 10:41:09;;;;;;;14.75;8.10;;;;;;;;;;5058398;28;20024;-61
2021/06/20 10:43:35;;;;;;;14.85;7.80;;;;;;;;;;5051262;28;20028;-61
2021/06/20 10:46:12;;;;;;;14.52;8.38;;;;;;;;;;5050249;28;20013;-61
2021/06/20 10:48:38;;;;;;;15.50;8.68;;;;;;;;;;5045618;28;20052;-61
2021/06/20 10:51:04;;;;;;;14.93;8.40;;;;;;;;;;5030194;28;20489;-61
2021/06/20 10:53:40;;;;;;;14.50;8.90;;;;;;;;;;5030264;28;20026;-62
2021/06/20 10:56:06;;;;;;;16.85;8.50;;;;;;;;;;5030687;28;20033;-62
2021/06/20 10:58:34;;;;;;;14.82;8.52;;;;;;;;;;5032255;28;20379;-62
2021/06/20 11:01:07;;;;;;;15.38;8.40;;;;;;;;;;5030536;28;20021;-62
2021/06/20 11:03:33;;;;;;;14.13;7.93;;;;;;;;;;5031991;28;20022;-62
2021/06/20 11:06:11;;;;;;;15.65;8.20;;;;;;;;;;5031652;28;20028;-63
2021/06/20 11:08:56;;;;;;;14.60;7.90;;;;;;;;;;5031982;28;20032;-62
2021/06/20 11:11:32;;;;;;;14.35;7.70;;;;;;;;;;5031872;28;20033;-62
2021/06/20 11:13:58;;;;;;;15.73;7.88;;;;;;;;;;5031733;28;20025;-63
2021/06/20 11:16:25;;;;;;;15.23;7.82;;;;;;;;;;5031180;28;20509;-61
2021/06/20 11:19:10;;;;;;;17.30;8.60;;;;;;;;;;5031391;28;20022;-61
2021/06/20 11:21:41;;;;;;;14.65;8.18;;;;;;;;;;5032187;28;20264;-62
2021/06/20 11:24:07;;;;;;;14.65;8.73;;;;;;;;;;5030731;28;20033;-60
2021/06/20 11:26:33;;;;;;;14.30;8.38;;;;;;;;;;5034246;28;20389;-62
2021/06/20 11:29:05;;;;;;;15.73;9.27;;;;;;;;;;5050542;28;20457;-62
2021/06/20 11:31:31;;;;;;;14.43;9.07;;;;;;;;;;5050048;28;20033;-61
2021/06/20 11:33:57;;;;;;;15.18;9.38;;;;;;;;;;5051284;28;20028;-61
2021/06/20 11:36:25;;;;;;;14.98;9.40;;;;;;;;;;5051036;28;20025;-61
2021/06/20 11:38:51;;;;;;;14.73;9.25;;;;;;;;;;5049554;28;20481;-61
2021/06/20 11:41:19;;;;;;;18.65;9.20;;;;;;;;;;5051156;28;20021;-62
2021/06/20 11:43:57;;;;;;;15.93;9.23;;;;;;;;;;5051202;28;20043;-63
2021/06/20 11:46:23;;;;;;;15.65;8.98;;;;;;;;;;5051727;28;20021;-61
2021/06/20 11:48:50;;;;;;;15.82;9.00;;;;;;;;;;5051192;28;20036;-60
2021/06/20 11:51:26;;;;;;;14.10;8.45;;;;;;;;;;5051269;28;20029;-61
2021/06/20 11:53:52;;;;;;;15.65;8.95;;;;;;;;;;5050828;28;20357;-61
2021/06/20 11:56:27;;;;;;;14.82;8.82;;;;;;;;;;5050883;28;20402;-62
2021/06/20 11:58:55;;;;;;;14.52;8.68;;;;;;;;;;5049920;28;20036;-62
2021/06/20 12:01:21;;;;;;;15.02;9.57;;;;;;;;;;5049807;28;20024;-62
2021/06/20 12:03:47;;;;;;;15.25;9.93;;;;;;;;;;5049810;28;20025;-61
2021/06/20 12:06:13;;;;;;;15.38;10.05;;;;;;;;;;5051072;28;20533;-63
2021/06/20 12:08:39;;;;;;;15.82;10.13;;;;;;;;;;5050811;28;20025;-60
2021/06/20 12:11:05;;;;;;;15.25;10.23;;;;;;;;;;5050184;28;20032;-63
2021/06/20 12:13:41;;;;;;;15.38;10.13;;;;;;;;;;5054622;28;20025;-61
2021/06/20 12:16:07;;;;;;;15.43;10.07;;;;;;;;;;5054259;28;20033;-62
2021/06/20 12:18:33;;;;;;;14.35;9.35;;;;;;;;;;5052652;28;20111;-61
2021/06/20 12:20:59;;;;;;;16.77;9.45;;;;;;;;;;5051328;28;20033;-59
2021/06/20 12:23:32;;;;;;;14.55;9.90;;;;;;;;;;5051688;28;20056;-57
2021/06/20 12:25:57;;;;;;;15.77;9.73;;;26.10;94.60;;;;;;5051738;28;20480;-58
2021/06/20 12:28:23;;;;;;;15.55;10.00;;;26.80;97.70;;;;;;5051799;28;20036;-60
2021/06/20 12:30:50;;;;;;;15.15;10.35;;;;;;;;;;5051593;28;20025;-59
2021/06/20 12:33:17;;;;;;;15.32;10.70;;;;;;;;;;5051573;28;20032;-58
2021/06/20 12:35:46;;;;;;;16.52;10.50;;;;;;;;;;5040095;28;20024;-58
2021/06/20 12:38:16;;;;;;;14.95;10.57;;;;;;;;;;5042031;28;20033;-59
2021/06/20 12:40:42;;;;;;;14.70;10.27;;;;;;;;;;5041692;28;20029;-57
2021/06/20 12:43:13;;;;;;;15.70;10.73;;;;;;;;;;5039713;28;20485;-59
2021/06/20 12:45:39;;;;;;;15.55;10.50;;;;;;;;;;5031337;28;20026;-57
2021/06/20 12:48:14;;;;;;;15.40;10.40;;;;;;;;;;5030933;28;20534;-58
2021/06/20 12:50:43;;;;;;;15.35;11.18;;;;;;;;;;5031142;28;20397;-59
2021/06/20 12:53:09;;;;;;;15.95;10.93;;;;;;;;;;5031214;28;20021;-59
2021/06/20 12:55:35;;;;;;;15.73;10.50;;;;;;;;;;5031208;28;20022;-58
2021/06/20 12:58:03;;;;;;;15.35;10.50;;;;;;;;;;5036605;28;20400;-58
2021/06/20 13:00:30;;;;;;;15.25;11.00;;;;;;;;;;5056532;28;20067;-59
2021/06/20 13:03:00;;;;;;;16.33;10.80;;;;;;;;;;5069636;28;20029;-58
2021/06/20 13:05:29;;;;;;;15.97;10.90;;;;;;;;;;4708243;28;10000365;-59
2021/06/20 13:07:55;;;;;;;15.30;11.07;;;;;;;;;;5051208;28;20278;-63
2021/06/20 13:10:21;;;;;;;15.55;11.30;;;;;;;;;;5049916;28;20485;-57
2021/06/20 13:12:47;;;;;;;14.80;10.90;;;;;;;;;;5049749;28;20063;-57
2021/06/20 13:15:14;;;;;;;16.30;11.60;;;;;;;;;;5047215;28;20017;-57
2021/06/20 13:17:41;;;;;;;16.02;10.70;;;;;;;;;;5039069;28;20018;-57
2021/06/20 13:20:08;;;;;;;16.75;10.50;;;;;;;;;;5036601;28;20041;-53
2021/06/20 13:22:34;;;;;;;15.77;10.85;;;;;;;;;;5045066;28;20513;-55
2021/06/20 13:25:00;;;;;;;16.00;10.93;;;;;;;;;;5050167;28;20021;-58
2021/06/20 13:27:26;;;;;;;15.13;10.52;;;;;;;;;;5047240;28;20175;-54
2021/06/20 13:29:52;;;;;;;15.65;10.60;;;;;;;;;;5041373;28;20104;-55
2021/06/20 13:32:18;;;;;;;16.58;10.45;;;;;;;;;;5061783;28;20093;-53
2021/06/20 13:34:44;;;;;;;14.73;10.10;;;;;;;;;;5067590;28;20040;-55
2021/06/20 13:37:10;;;;;;;17.08;10.85;;;;;;;;;;5049082;28;20031;-56
2021/06/20 13:39:38;;;;;;;17.17;10.93;;;;;;;;;;5057343;28;20124;-58
2021/06/20 13:42:04;;;;;;;14.88;10.60;;;;;;;;;;5060177;28;20550;-61
2021/06/20 13:44:30;;;;;;;17.15;11.00;;;;;;;;;;5056537;28;20551;-57
2021/06/20 13:46:57;;;;;;;15.68;11.05;;;;;;;;;;5063038;28;20017;-57
2021/06/20 13:49:23;;;;;;;15.38;10.57;;;;;;;;;;5060182;28;20029;-56
2021/06/20 13:51:52;;;;;;;15.57;10.65;;;;;;;;;;5060485;28;20024;-57
2021/06/20 13:54:18;;;;;;;15.02;10.45;;;;;;;;;;5067544;28;20025;-55
2021/06/20 13:56:44;;;;;;;16.55;10.98;;;;;;;;;;5067973;28;20090;-58
2021/06/20 13:59:10;;;;;;;14.88;10.50;;;;;;;;;;5066242;28;20116;-54
2021/06/20 14:01:36;;;;;;;15.00;10.82;;;;;;;;;;5067657;28;20016;-58
2021/06/20 14:04:02;;;;;;;15.63;10.70;;;;;;;;;;5066684;28;20021;-56
2021/06/20 14:06:28;;;;;;;15.50;10.50;;;;;;;;;;5054694;28;20025;-54
2021/06/20 14:08:54;;;;;;;15.20;10.50;;;;;;;;;;5032897;28;20037;-55
2021/06/20 14:11:20;;;;;;;15.00;10.38;;;;;;;;;;5032925;28;20021;-59
2021/06/20 14:13:46;;;;;;;14.73;10.70;;;;;;;;;;4690720;28;10000161;-59
2021/06/20 14:16:12;;;;;;;14.85;10.70;;;;;;;;;;5037439;28;20037;-58
2021/06/20 14:18:38;;;;;;;15.10;10.45;;;;;;;;;;5030800;28;20504;-55
2021/06/20 14:21:04;;;;;;;14.50;10.60;;;;;;;;;;5032715;28;20029;-54
2021/06/20 14:23:31;;;;;;;17.42;10.60;;;;;;;;;;5032813;28;20091;-54